Time;durP1;ratioP1;P1;durP2;ratioP2;P2;SDS_P1;SDS_P2;PMS_P1;PMS_P2;Temp;Humidity;BMP_temperature;BMP_pressure;BME280_temperature;BME280_humidity;BME280_pressure;Samples;Min_cycle;Max_cycle;Signal;HPM_P1;HPM_P2
2021/05/06 00:01:36;;;;;;;5.37;1.00;;;8.60;99.90;;;;;;4985366;28;20801;-79
2021/05/06 00:14:47;;;;;;;4.53;1.03;;;8.40;99.90;;;;;;5003071;28;20204;-79
2021/05/06 00:31:04;;;;;;;3.33;1.20;;;8.50;99.90;;;;;;4986064;28;20284;-79
2021/05/06 00:33:30;;;;;;;3.70;0.83;;;8.60;99.90;;;;;;4972580;28;20279;-79
2021/05/06 00:35:55;;;;;;;4.67;1.30;;;8.50;99.90;;;;;;4972260;28;20318;-79
2021/05/06 00:38:25;;;;;;;3.80;1.50;;;8.40;99.90;;;;;;4972367;28;20200;-79
2021/05/06 01:07:08;;;;;;;6.73;1.67;;;7.90;99.90;;;;;;4971856;28;20187;-79
2021/05/06 01:09:43;;;;;;;4.00;1.40;;;8.00;99.90;;;;;;5003286;28;20189;-79
2021/05/06 01:12:09;;;;;;;7.47;1.40;;;7.90;99.90;;;;;;4973381;28;20664;-79
2021/05/06 01:14:36;;;;;;;5.90;1.67;;;8.10;99.90;;;;;;5007328;28;20189;-79
2021/05/06 01:17:02;;;;;;;5.50;2.17;;;8.20;99.90;;;;;;4975543;28;20204;-79
2021/05/06 01:19:28;;;;;;;5.03;1.70;;;8.30;99.90;;;;;;4990239;28;20209;-80
2021/05/06 01:21:55;;;;;;;5.73;1.73;;;8.40;99.90;;;;;;5006054;28;20248;-79
2021/05/06 01:24:21;;;;;;;5.10;1.43;;;8.40;99.90;;;;;;4971751;28;20698;-79
2021/05/06 01:29:36;;;;;;;4.17;1.60;;;8.40;99.90;;;;;;4973584;28;20193;-80
2021/05/06 01:34:47;;;;;;;6.10;1.87;;;8.40;99.90;;;;;;5003733;28;20771;-79
2021/05/06 01:37:21;;;;;;;5.67;1.90;;;8.40;99.90;;;;;;4971339;28;20197;-80
2021/05/06 01:42:31;;;;;;;7.23;1.90;;;8.50;99.90;;;;;;4972206;28;20654;-80
2021/05/06 01:47:42;;;;;;;5.63;1.80;;;8.60;99.90;;;;;;4973734;28;20533;-80
2021/05/06 02:00:48;;;;;;;5.77;1.70;;;8.80;99.90;;;;;;4974855;28;20189;-80
2021/05/06 02:03:20;;;;;;;6.47;1.70;;;8.80;99.90;;;;;;5007260;28;20297;-80
2021/05/06 02:05:50;;;;;;;5.93;1.70;;;8.90;99.90;;;;;;4986737;28;20203;-80
2021/05/06 02:08:16;;;;;;;5.23;1.70;;;8.80;99.90;;;;;;4974706;28;20187;-79
2021/05/06 02:10:46;;;;;;;7.53;1.70;;;8.80;99.90;;;;;;4974367;28;20516;-79
2021/05/06 02:13:16;;;;;;;5.27;1.60;;;8.80;99.90;;;;;;4974532;28;20277;-79
2021/05/06 02:15:50;;;;;;;10.67;1.87;;;8.70;99.90;;;;;;5002567;28;20224;-79
2021/05/06 02:18:17;;;;;;;6.53;1.60;;;8.70;99.90;;;;;;5004167;28;20194;-79
2021/05/06 02:20:43;;;;;;;5.10;1.60;;;8.70;99.90;;;;;;4990737;28;20551;-79
2021/05/06 02:23:09;;;;;;;5.93;1.80;;;8.70;99.90;;;;;;5005889;28;20189;-79
2021/05/06 02:25:35;;;;;;;5.67;2.03;;;8.70;99.90;;;;;;4974218;28;20214;-79
2021/05/06 02:28:01;;;;;;;5.43;1.63;;;8.70;99.90;;;;;;4989841;28;20241;-79
2021/05/06 02:30:27;;;;;;;6.43;1.80;;;8.70;99.90;;;;;;4972974;28;20197;-79
2021/05/06 02:32:52;;;;;;;5.40;1.83;;;8.80;99.90;;;;;;4975304;28;20527;-80
2021/05/06 02:35:19;;;;;;;4.40;1.87;;;8.80;99.90;;;;;;4972600;28;20325;-80
2021/05/06 02:37:45;;;;;;;7.40;2.10;;;8.70;99.90;;;;;;4975838;28;20176;-79
2021/05/06 02:40:11;;;;;;;6.40;2.10;;;8.70;99.90;;;;;;4989670;28;20219;-79
2021/05/06 02:42:38;;;;;;;10.07;2.57;;;8.70;99.90;;;;;;4974462;28;20709;-79
2021/05/06 02:45:05;;;;;;;7.97;2.50;;;8.80;99.90;;;;;;4974243;28;20688;-79
2021/05/06 02:47:31;;;;;;;6.87;2.40;;;8.80;99.90;;;;;;5003548;28;20227;-79
2021/05/06 02:49:57;;;;;;;11.87;2.20;;;8.80;99.90;;;;;;4981054;28;20637;-80
2021/05/06 02:54:56;;;;;;;5.77;2.20;;;8.70;99.90;;;;;;4974243;28;20197;-79
2021/05/06 03:02:55;;;;;;;8.27;2.60;;;8.40;99.90;;;;;;4989219;28;20636;-80
2021/05/06 03:05:23;;;;;;;8.77;3.07;;;8.40;99.90;;;;;;4973745;28;20209;-80
2021/05/06 03:08:34;;;;;;;8.90;2.67;;;8.40;99.90;;;;;;4993472;28;20181;-79
2021/05/06 03:24:23;;;;;;;11.73;3.03;;;7.90;99.90;;;;;;4973623;28;20221;-79
2021/05/06 03:26:49;;;;;;;8.07;2.77;;;7.90;99.90;;;;;;4972455;28;20219;-80
2021/05/06 03:29:20;;;;;;;7.90;2.60;;;7.80;99.90;;;;;;4974002;28;20197;-81
2021/05/06 03:42:46;;;;;;;9.57;2.93;;;7.60;99.90;;;;;;4990313;28;20205;-80
2021/05/06 03:45:48;;;;;;;11.17;3.17;;;7.70;99.90;;;;;;4986883;28;20228;-80
2021/05/06 04:18:28;;;;;;;19.93;3.60;;;7.60;99.90;;;;;;4973030;28;20583;-79
2021/05/06 04:26:35;;;;;;;11.57;3.97;;;7.70;99.90;;;;;;4971287;28;20195;-79
2021/05/06 04:37:16;;;;;;;11.97;3.30;;;7.80;99.90;;;;;;4969898;28;20209;-80
2021/05/06 04:39:47;;;;;;;8.70;3.20;;;7.80;99.90;;;;;;4972010;28;20238;-78
2021/05/06 04:55:41;;;;;;;12.20;3.20;;;8.40;99.90;;;;;;4975318;28;20344;-78
2021/05/06 05:03:37;;;;;;;13.77;3.60;;;8.60;99.90;;;;;;4974837;28;20687;-78
2021/05/06 05:06:03;;;;;;;12.77;3.43;;;8.70;99.90;;;;;;4970382;28;20208;-78
2021/05/06 05:08:36;;;;;;;12.27;3.13;;;8.90;99.90;;;;;;4975338;28;20189;-79
2021/05/06 05:11:20;;;;;;;11.50;3.40;;;9.00;99.90;;;;;;4981082;28;20190;-79
2021/05/06 05:13:55;;;;;;;13.70;2.97;;;9.20;99.90;;;;;;4975124;28;20189;-79
2021/05/06 05:27:07;;;;;;;10.20;3.07;;;10.80;99.90;;;;;;4990069;28;20234;-78
2021/05/06 05:29:32;;;;;;;11.07;2.80;;;10.90;99.90;;;;;;5006778;28;20610;-80
2021/05/06 05:31:58;;;;;;;9.57;2.83;;;10.90;99.90;;;;;;4973310;28;20207;-80
2021/05/06 05:36:55;;;;;;;9.00;2.70;;;11.10;99.90;;;;;;4973693;28;20204;-80
2021/05/06 05:39:35;;;;;;;11.13;2.90;;;10.90;99.90;;;;;;4977650;28;20183;-80
2021/05/06 05:55:41;;;;;;;8.83;2.50;;;14.90;99.90;;;;;;4974337;28;20214;-79
2021/05/06 05:58:07;;;;;;;10.80;2.33;;;16.10;99.90;;;;;;4973265;28;20293;-78
2021/05/06 06:00:32;;;;;;;6.40;2.10;;;16.30;99.90;;;;;;4988465;28;20266;-78
2021/05/06 06:02:58;;;;;;;8.07;2.10;;;16.30;99.90;;;;;;4975202;28;20550;-78
2021/05/06 06:05:24;;;;;;;8.50;2.00;;;16.30;99.90;;;;;;4990535;28;20232;-78
2021/05/06 06:07:50;;;;;;;9.10;2.27;;;16.50;99.90;;;;;;4975899;28;20183;-78
2021/05/06 06:10:16;;;;;;;9.20;2.13;;;17.10;99.90;;;;;;4974296;28;20271;-78
2021/05/06 06:12:41;;;;;;;9.53;2.07;;;17.60;99.90;;;;;;4974465;28;20187;-79
2021/05/06 06:15:13;;;;;;;9.00;2.00;;;17.20;99.90;;;;;;4975345;28;20188;-79
2021/05/06 06:17:42;;;;;;;7.80;2.20;;;16.80;99.90;;;;;;5004810;28;20188;-79
2021/05/06 06:20:09;;;;;;;7.83;2.30;;;16.60;99.90;;;;;;4974704;28;20185;-79
2021/05/06 06:22:34;;;;;;;5.13;1.80;;;16.40;99.90;;;;;;4974199;28;20247;-79
2021/05/06 06:25:02;;;;;;;7.13;2.40;;;16.40;99.90;;;;;;4975324;28;20214;-79
2021/05/06 06:27:29;;;;;;;12.07;2.30;;;16.20;99.90;;;;;;5005139;28;20188;-79
2021/05/06 06:29:55;;;;;;;8.13;2.23;;;16.00;99.90;;;;;;4988887;28;20194;-79
2021/05/06 06:32:20;;;;;;;6.97;2.00;;;16.30;99.90;;;;;;4980804;28;20194;-79
2021/05/06 06:34:47;;;;;;;8.63;2.03;;;16.40;99.90;;;;;;4972621;28;20224;-79
2021/05/06 06:37:13;;;;;;;10.23;2.30;;;16.30;99.90;;;;;;5005400;28;20239;-79
2021/05/06 06:39:40;;;;;;;9.40;2.20;;;16.30;99.90;;;;;;4971448;28;20195;-79
2021/05/06 06:42:07;;;;;;;6.93;2.27;;;16.40;99.90;;;;;;4989096;28;20296;-80
2021/05/06 06:44:34;;;;;;;9.87;2.47;;;16.50;99.90;;;;;;4989871;28;20217;-79
2021/05/06 06:47:06;;;;;;;8.13;2.23;;;16.00;99.90;;;;;;4972104;28;20698;-79
2021/05/06 06:49:34;;;;;;;11.83;2.50;;;16.20;99.90;;;;;;4989447;28;20193;-79
2021/05/06 06:52:01;;;;;;;8.43;2.20;;;17.00;99.90;;;;;;4972378;28;20225;-79
2021/05/06 06:54:27;;;;;;;6.90;1.97;;;18.00;99.90;;;;;;4988856;28;20206;-79
2021/05/06 06:56:54;;;;;;;12.50;2.30;;;18.60;99.30;;;;;;4978309;28;20669;-80
2021/05/06 06:59:20;;;;;;;9.43;2.30;;;19.70;98.30;;;;;;4987496;28;20278;-79
2021/05/06 07:01:45;;;;;;;8.67;2.40;;;20.40;96.10;;;;;;4974417;28;20298;-79
2021/05/06 07:04:11;;;;;;;12.03;2.10;;;20.30;94.80;;;;;;4989171;28;20657;-79
2021/05/06 07:06:38;;;;;;;9.63;2.30;;;20.50;94.80;;;;;;4972400;28;20198;-79
2021/05/06 07:09:05;;;;;;;9.33;2.30;;;21.10;93.60;;;;;;5004885;28;20187;-79
2021/05/06 07:11:31;;;;;;;7.30;2.13;;;22.30;91.00;;;;;;4975838;28;20233;-80
2021/05/06 07:13:57;;;;;;;10.13;2.27;;;22.90;87.70;;;;;;5006877;28;20596;-79
2021/05/06 07:16:23;;;;;;;6.87;2.30;;;23.00;83.60;;;;;;4972587;28;20189;-79
2021/05/06 07:18:49;;;;;;;10.93;3.07;;;22.90;80.50;;;;;;5005111;28;20234;-80
2021/05/06 07:21:14;;;;;;;9.40;2.20;;;22.90;82.00;;;;;;4972167;28;20179;-79
2021/05/06 07:23:40;;;;;;;9.20;2.53;;;23.50;78.00;;;;;;4988174;28;20195;-79
2021/05/06 07:26:06;;;;;;;8.57;2.57;;;24.60;74.80;;;;;;5004788;28;20577;-79
2021/05/06 07:28:35;;;;;;;8.77;2.27;;;25.30;70.70;;;;;;5004149;28;20650;-79
2021/05/06 07:31:02;;;;;;;6.83;2.00;;;25.90;67.60;;;;;;4974273;28;20565;-80
2021/05/06 07:33:29;;;;;;;7.23;1.90;;;26.60;66.10;;;;;;4972779;28;20213;-79
2021/05/06 07:35:59;;;;;;;6.00;2.00;;;26.10;61.00;;;;;;4973001;28;20219;-80
2021/05/06 07:38:25;;;;;;;10.83;2.00;;;25.20;65.40;;;;;;4971908;28;20206;-79
2021/05/06 07:40:51;;;;;;;11.87;2.43;;;25.60;63.90;;;;;;4972162;28;20226;-79
2021/05/06 07:43:17;;;;;;;7.10;2.10;;;25.80;63.40;;;;;;4991715;28;20198;-80
2021/05/06 07:45:43;;;;;;;6.70;1.87;;;25.20;62.30;;;;;;4972543;28;20230;-78
2021/05/06 07:48:09;;;;;;;6.70;2.27;;;23.70;63.80;;;;;;5004740;28;20189;-80
2021/05/06 07:50:36;;;;;;;8.27;2.10;;;22.50;65.50;;;;;;4988022;28;20637;-79
2021/05/06 07:53:08;;;;;;;7.60;2.40;;;21.90;69.60;;;;;;4971385;28;20186;-79
2021/05/06 07:55:35;;;;;;;8.07;2.53;;;22.10;72.30;;;;;;4973193;28;20335;-79
2021/05/06 07:58:02;;;;;;;7.67;2.40;;;23.70;69.20;;;;;;4987050;28;20189;-79
2021/05/06 08:00:29;;;;;;;8.07;2.10;;;24.40;65.00;;;;;;4973659;28;20225;-80
2021/05/06 08:02:56;;;;;;;7.73;3.20;;;26.00;62.50;;;;;;4971457;28;20262;-80
2021/05/06 08:05:23;;;;;;;6.27;2.43;;;25.50;59.10;;;;;;4974244;28;20220;-79
2021/05/06 08:07:49;;;;;;;7.87;2.17;;;24.30;62.10;;;;;;4971836;28;20193;-80
2021/05/06 08:10:17;;;;;;;5.83;2.13;;;26.00;60.00;;;;;;4975174;28;20183;-80
2021/05/06 08:12:44;;;;;;;7.13;2.03;;;27.20;59.00;;;;;;5004456;28;20191;-80
2021/05/06 08:15:11;;;;;;;6.75;2.15;;;28.20;55.70;;;;;;4989129;28;21687;-79
2021/05/06 08:17:37;;;;;;;6.90;2.20;;;28.50;54.60;;;;;;4977913;28;20226;-79
2021/05/06 08:20:06;;;;;;;5.88;2.00;;;28.80;54.20;;;;;;4972120;28;20713;-79
2021/05/06 08:22:32;;;;;;;4.55;1.90;;;28.70;53.70;;;;;;5002495;28;20195;-80
2021/05/06 08:24:57;;;;;;;5.40;1.95;;;29.00;53.00;;;;;;4972390;28;20214;-80
2021/05/06 08:27:23;;;;;;;6.30;1.92;;;29.60;51.50;;;;;;4985312;28;20234;-80
2021/05/06 08:29:49;;;;;;;4.93;1.83;;;28.60;51.40;;;;;;4972209;28;20195;-80
2021/05/06 08:32:14;;;;;;;4.70;1.80;;;29.30;52.40;;;;;;5002298;28;20266;-80
2021/05/06 08:34:40;;;;;;;7.80;1.80;;;30.40;50.50;;;;;;4972450;28;20262;-80
2021/05/06 08:37:06;;;;;;;5.10;1.60;;;31.20;49.40;;;;;;4972480;28;20230;-80
2021/05/06 08:39:31;;;;;;;4.85;1.75;;;30.70;45.90;;;;;;5003778;28;20610;-80
2021/05/06 08:41:59;;;;;;;5.03;1.90;;;29.20;47.10;;;;;;5003535;28;20191;-80
2021/05/06 08:44:29;;;;;;;6.93;1.70;;;28.50;47.50;;;;;;5001951;28;20265;-80
2021/05/06 08:47:15;;;;;;;5.43;1.33;;;29.50;49.30;;;;;;5003167;28;20553;-80
2021/05/06 08:49:41;;;;;;;6.55;1.80;;;29.10;45.70;;;;;;4971865;28;20532;-79
2021/05/06 08:52:12;;;;;;;7.22;1.92;;;27.60;48.30;;;;;;4971314;28;20186;-79
2021/05/06 08:54:39;;;;;;;8.30;2.53;;;27.80;49.60;;;;;;4971755;28;20274;-80
2021/05/06 08:57:05;;;;;;;5.57;1.63;;;28.50;48.90;;;;;;4972112;28;20214;-79
2021/05/06 08:59:31;;;;;;;6.45;2.05;;;28.80;46.80;;;;;;4977882;28;20585;-79
2021/05/06 09:01:57;;;;;;;9.10;1.77;;;26.70;47.60;;;;;;4985919;28;20230;-80
2021/05/06 09:04:26;;;;;;;11.00;3.95;;;27.30;51.40;;;;;;4972806;28;20197;-80
2021/05/06 09:06:56;;;;;;;8.55;2.42;;;28.20;48.20;;;;;;4969323;28;20184;-80
2021/05/06 09:09:24;;;;;;;5.80;1.58;;;27.40;49.60;;;;;;4987759;28;20198;-80
2021/05/06 09:11:58;;;;;;;4.83;1.83;;;25.60;48.80;;;;;;4971715;28;20191;-80
2021/05/06 09:14:43;;;;;;;5.17;1.80;;;23.30;51.10;;;;;;4972517;28;20272;-79
2021/05/06 09:17:33;;;;;;;7.27;2.47;;;22.40;52.90;;;;;;4969025;28;20209;-79
2021/05/06 09:20:16;;;;;;;7.93;1.80;;;21.60;57.70;;;;;;5002137;28;20205;-80
2021/05/06 09:22:44;;;;;;;6.40;2.00;;;22.40;57.20;;;;;;4972096;28;20190;-79
2021/05/06 09:25:29;;;;;;;9.13;2.27;;;23.10;55.00;;;;;;5002498;28;20224;-79
2021/05/06 09:28:11;;;;;;;8.33;2.30;;;23.00;52.10;;;;;;5001107;28;20186;-80
2021/05/06 09:30:46;;;;;;;6.80;2.70;;;22.30;52.40;;;;;;4986401;28;20193;-79
2021/05/06 09:33:12;;;;;;;7.47;2.70;;;22.10;53.20;;;;;;5006980;28;20174;-79
2021/05/06 09:35:46;;;;;;;6.87;2.43;;;21.90;53.60;;;;;;4988648;28;20244;-79
2021/05/06 09:38:24;;;;;;;9.03;3.30;;;21.60;53.40;;;;;;4975578;28;20190;-79
2021/05/06 09:40:50;;;;;;;10.57;3.20;;;21.90;55.60;;;;;;4989331;28;20325;-79
2021/05/06 09:43:24;;;;;;;9.80;3.37;;;21.70;54.90;;;;;;4977444;28;20274;-79
2021/05/06 09:45:50;;;;;;;11.40;3.90;;;21.30;56.10;;;;;;4974941;28;20214;-79
2021/05/06 09:48:16;;;;;;;9.50;3.97;;;20.90;56.50;;;;;;4975202;28;20544;-79
2021/05/06 09:50:45;;;;;;;13.23;4.80;;;19.90;59.20;;;;;;4976423;28;20270;-79
2021/05/06 09:53:13;;;;;;;10.60;4.00;;;19.70;58.80;;;;;;4973868;28;20187;-79
2021/05/06 09:55:40;;;;;;;8.20;3.80;;;19.70;59.20;;;;;;4974922;28;20191;-79
2021/05/06 09:58:17;;;;;;;8.50;3.60;;;19.80;59.20;;;;;;4991129;28;20301;-79
2021/05/06 10:00:43;;;;;;;9.27;3.47;;;19.70;59.10;;;;;;4974825;28;20190;-79
2021/05/06 10:03:10;;;;;;;9.87;2.90;;;19.60;60.90;;;;;;4974346;28;20193;-79
2021/05/06 10:05:40;;;;;;;8.97;2.90;;;19.70;60.60;;;;;;4988782;28;20213;-79
2021/05/06 10:08:06;;;;;;;9.20;3.00;;;19.90;61.10;;;;;;4989549;28;20700;-79
2021/05/06 10:10:33;;;;;;;7.90;2.80;;;19.80;60.00;;;;;;4974902;28;20182;-79
2021/05/06 10:13:00;;;;;;;8.73;2.80;;;19.50;59.40;;;;;;4973751;28;20199;-79
2021/05/06 10:15:26;;;;;;;7.27;2.70;;;19.10;60.60;;;;;;4975354;28;20230;-79
2021/05/06 10:17:53;;;;;;;9.43;2.70;;;19.00;62.70;;;;;;4974634;28;20268;-79
2021/05/06 10:20:22;;;;;;;8.80;2.80;;;18.80;61.30;;;;;;4975467;28;20728;-79
2021/05/06 10:22:49;;;;;;;10.73;2.70;;;18.90;63.20;;;;;;5003321;28;20195;-79
2021/05/06 10:25:15;;;;;;;7.60;2.37;;;19.00;63.20;;;;;;5006405;28;20682;-79
2021/05/06 10:27:41;;;;;;;8.67;2.90;;;19.10;61.60;;;;;;4978156;28;20191;-79
2021/05/06 10:30:07;;;;;;;6.30;2.20;;;19.00;61.90;;;;;;4974813;28;21497;-78
2021/05/06 10:32:35;;;;;;;8.83;2.40;;;18.70;62.30;;;;;;4973616;28;20193;-78
2021/05/06 10:35:07;;;;;;;7.50;2.10;;;18.70;63.20;;;;;;4973162;28;20417;-78
2021/05/06 10:37:36;;;;;;;5.83;2.10;;;18.50;61.30;;;;;;5006087;28;20187;-78
2021/05/06 10:40:06;;;;;;;10.80;2.50;;;18.90;62.00;;;;;;4974475;28;20207;-78
2021/05/06 10:42:34;;;;;;;8.53;2.20;;;19.00;61.80;;;;;;4988563;28;20190;-78
2021/05/06 10:45:23;;;;;;;8.10;1.80;;;19.60;63.00;;;;;;5004886;28;20735;-79
2021/05/06 10:47:49;;;;;;;7.83;1.80;;;19.70;59.90;;;;;;4989493;28;20228;-79
2021/05/06 10:50:34;;;;;;;9.87;2.20;;;20.10;63.40;;;;;;4978429;28;20229;-79
2021/05/06 10:53:01;;;;;;;6.73;2.00;;;20.10;62.10;;;;;;5004912;28;20183;-79
2021/05/06 10:55:56;;;;;;;8.10;2.33;;;19.40;63.40;;;;;;5004490;28;20212;-79
2021/05/06 10:58:21;;;;;;;5.80;2.10;;;18.80;61.30;;;;;;4987010;28;20549;-79
2021/05/06 11:01:14;;;;;;;8.87;2.07;;;18.60;62.00;;;;;;5005828;28;20242;-79
2021/05/06 11:03:41;;;;;;;7.90;2.30;;;18.60;65.00;;;;;;4972253;28;20249;-79
2021/05/06 11:06:08;;;;;;;10.27;2.50;;;18.50;62.80;;;;;;4974749;28;20211;-79
2021/05/06 11:08:37;;;;;;;8.63;1.87;;;18.20;63.40;;;;;;4973757;28;20190;-80
2021/05/06 11:11:05;;;;;;;7.90;2.17;;;17.80;64.10;;;;;;5006394;28;20650;-78
2021/05/06 11:14:05;;;;;;;7.40;1.83;;;17.60;65.70;;;;;;4989608;28;20209;-79
2021/05/06 11:16:31;;;;;;;5.73;1.90;;;17.70;67.60;;;;;;4973367;28;20650;-79
2021/05/06 11:18:58;;;;;;;4.70;1.80;;;17.80;66.00;;;;;;4988494;28;20202;-80
2021/05/06 11:21:30;;;;;;;6.57;1.63;;;17.20;64.80;;;;;;4972428;28;20199;-79
2021/05/06 11:24:12;;;;;;;7.27;1.70;;;16.90;66.20;;;;;;4974712;28;20202;-79
2021/05/06 11:27:02;;;;;;;5.53;1.60;;;16.90;66.40;;;;;;5003827;28;20201;-78
2021/05/06 11:29:28;;;;;;;7.60;1.57;;;16.90;63.90;;;;;;5004319;28;20193;-78
2021/05/06 11:31:55;;;;;;;8.13;1.60;;;17.10;65.90;;;;;;4987967;28;20186;-79
2021/05/06 11:34:41;;;;;;;7.30;1.70;;;17.60;65.70;;;;;;4975488;28;20206;-79
2021/05/06 11:37:19;;;;;;;6.17;1.80;;;17.80;63.50;;;;;;5003505;28;20220;-78
2021/05/06 11:39:47;;;;;;;5.77;1.47;;;18.10;66.00;;;;;;4973255;28;20190;-78
2021/05/06 11:42:13;;;;;;;5.93;1.70;;;18.30;62.30;;;;;;4973438;28;20668;-78
2021/05/06 11:44:38;;;;;;;8.53;1.73;;;17.70;63.80;;;;;;4956663;28;20211;-78
2021/05/06 11:47:04;;;;;;;8.83;1.50;;;17.80;65.40;;;;;;4988669;28;20185;-79
2021/05/06 11:49:30;;;;;;;5.50;1.40;;;17.70;64.40;;;;;;4972828;28;20656;-79
2021/05/06 11:51:55;;;;;;;7.90;1.60;;;17.60;66.00;;;;;;4987534;28;20262;-79
2021/05/06 11:54:25;;;;;;;5.40;1.60;;;17.50;64.80;;;;;;4972808;28;20194;-79
2021/05/06 11:56:55;;;;;;;3.33;1.20;;;17.40;63.70;;;;;;4972625;28;20826;-78
2021/05/06 11:59:24;;;;;;;4.00;1.20;;;17.50;62.50;;;;;;4974747;28;20198;-80
2021/05/06 12:01:51;;;;;;;9.67;1.20;;;17.50;62.10;;;;;;4972845;28;20206;-81
2021/05/06 12:04:36;;;;;;;6.60;1.10;;;17.80;64.70;;;;;;4972865;28;20177;-80
2021/05/06 12:07:16;;;;;;;4.80;1.17;;;18.20;60.70;;;;;;4990205;28;20643;-79
2021/05/06 12:09:42;;;;;;;2.83;1.10;;;18.50;60.00;;;;;;5003937;28;20213;-79
2021/05/06 12:12:09;;;;;;;4.60;1.20;;;18.70;57.30;;;;;;4972066;28;20574;-79
2021/05/06 12:14:36;;;;;;;4.10;1.30;;;18.80;57.20;;;;;;4984109;28;20198;-79
2021/05/06 12:17:07;;;;;;;5.60;1.30;;;19.00;56.80;;;;;;5004534;28;20229;-79
2021/05/06 12:19:43;;;;;;;7.63;1.60;;;19.00;58.10;;;;;;5003382;28;20198;-79
2021/05/06 12:22:10;;;;;;;5.27;1.60;;;18.80;58.10;;;;;;4987430;28;20217;-79
2021/05/06 12:24:41;;;;;;;11.30;2.17;;;18.80;61.70;;;;;;4971589;28;20210;-79
2021/05/06 12:27:39;;;;;;;8.07;1.90;;;18.60;65.00;;;;;;4973324;28;20646;-79
2021/05/06 12:30:07;;;;;;;8.60;2.13;;;18.30;65.00;;;;;;4956017;28;20220;-79
2021/05/06 12:32:34;;;;;;;10.30;2.17;;;18.40;68.00;;;;;;5003818;28;20193;-79
2021/05/06 12:35:00;;;;;;;7.40;2.23;;;18.70;67.90;;;;;;4972867;28;20262;-79
2021/05/06 12:37:32;;;;;;;9.43;2.20;;;18.40;66.20;;;;;;5002145;28;20213;-79
2021/05/06 12:39:58;;;;;;;12.80;2.30;;;18.60;69.70;;;;;;5005248;28;20273;-79
2021/05/06 12:42:36;;;;;;;10.70;2.40;;;18.80;68.80;;;;;;4972406;28;20664;-79
2021/05/06 12:45:04;;;;;;;10.17;2.23;;;18.80;66.70;;;;;;4987002;28;20563;-79
2021/05/06 12:47:32;;;;;;;10.87;2.23;;;18.90;69.20;;;;;;5003852;28;20187;-81
2021/05/06 12:50:18;;;;;;;7.43;2.40;;;19.10;67.40;;;;;;5018702;28;20278;-79
2021/05/06 12:52:46;;;;;;;9.57;2.50;;;19.10;66.90;;;;;;5003950;28;20198;-79
2021/05/06 12:55:26;;;;;;;7.43;2.23;;;19.00;66.20;;;;;;4970203;28;20198;-79
2021/05/06 12:58:13;;;;;;;7.93;2.20;;;19.00;65.80;;;;;;4972286;28;20644;-79
2021/05/06 13:00:40;;;;;;;5.97;1.93;;;19.20;66.10;;;;;;4971042;28;20318;-79
2021/05/06 13:03:08;;;;;;;8.33;2.10;;;19.20;64.70;;;;;;4972482;28;20184;-79
2021/05/06 13:05:41;;;;;;;8.13;2.40;;;18.20;64.10;;;;;;4973034;28;20226;-80
2021/05/06 13:08:07;;;;;;;8.67;2.07;;;17.80;65.70;;;;;;5007222;28;20202;-79
2021/05/06 13:10:34;;;;;;;10.20;2.50;;;16.90;68.80;;;;;;5007645;28;20178;-79
2021/05/06 13:13:01;;;;;;;10.87;2.30;;;16.80;71.80;;;;;;4975887;28;20215;-79
2021/05/06 13:15:27;;;;;;;11.03;2.60;;;16.50;73.90;;;;;;4976004;28;20242;-79
2021/05/06 13:17:55;;;;;;;7.67;2.00;;;16.70;72.20;;;;;;5003871;28;20689;-80
2021/05/06 13:20:27;;;;;;;10.40;2.10;;;17.00;70.90;;;;;;4975781;28;20185;-79
2021/05/06 13:23:16;;;;;;;9.97;2.10;;;16.80;70.40;;;;;;4991275;28;20194;-79
2021/05/06 13:26:06;;;;;;;7.63;2.00;;;16.80;71.40;;;;;;4989211;28;20268;-79
2021/05/06 13:28:32;;;;;;;7.33;2.30;;;17.20;73.20;;;;;;4958437;28;20195;-79
2021/05/06 13:31:21;;;;;;;7.23;2.20;;;17.80;70.80;;;;;;4974702;28;20755;-81
2021/05/06 13:33:49;;;;;;;7.87;2.30;;;18.00;71.80;;;;;;4990343;28;20230;-78
2021/05/06 13:36:17;;;;;;;8.00;2.40;;;18.10;70.30;;;;;;5005774;28;20314;-79
2021/05/06 13:39:01;;;;;;;8.63;2.30;;;18.10;72.50;;;;;;5007222;28;20228;-79
2021/05/06 13:41:29;;;;;;;8.40;2.23;;;18.00;68.30;;;;;;4974085;28;20194;-79
2021/05/06 13:43:56;;;;;;;8.50;2.23;;;17.90;68.60;;;;;;5006951;28;20538;-79
2021/05/06 13:46:23;;;;;;;8.23;2.27;;;18.00;69.40;;;;;;4976249;28;20221;-79
2021/05/06 13:48:49;;;;;;;9.10;2.10;;;17.70;68.70;;;;;;4975221;28;20237;-79
2021/05/06 13:51:16;;;;;;;8.23;2.40;;;17.70;69.50;;;;;;4975700;28;20261;-79
2021/05/06 13:53:43;;;;;;;9.77;2.23;;;17.60;69.40;;;;;;5004744;28;20195;-79
2021/05/06 13:56:10;;;;;;;9.33;2.37;;;18.00;69.80;;;;;;4991150;28;20214;-79
2021/05/06 13:58:37;;;;;;;8.90;2.40;;;18.20;68.10;;;;;;4989568;28;20191;-79
2021/05/06 14:01:05;;;;;;;8.37;2.20;;;18.10;68.60;;;;;;5005769;28;20828;-79
2021/05/06 14:03:31;;;;;;;8.37;2.37;;;17.40;69.70;;;;;;4974059;28;20197;-79
2021/05/06 14:05:58;;;;;;;8.07;2.60;;;17.20;71.80;;;;;;4973587;28;20226;-80
2021/05/06 14:08:25;;;;;;;7.30;2.10;;;17.40;75.00;;;;;;5006178;28;20182;-80
2021/05/06 14:10:51;;;;;;;5.10;2.10;;;17.60;72.70;;;;;;4974572;28;20605;-78
2021/05/06 14:13:17;;;;;;;6.80;2.10;;;17.70;69.30;;;;;;4975402;28;20233;-79
2021/05/06 14:15:44;;;;;;;5.40;2.20;;;17.00;69.90;;;;;;5006299;28;20539;-78
2021/05/06 14:18:10;;;;;;;7.10;2.10;;;16.60;71.60;;;;;;4973157;28;20197;-80
2021/05/06 14:20:36;;;;;;;7.90;2.40;;;16.70;72.30;;;;;;4975087;28;20562;-78
2021/05/06 14:23:02;;;;;;;8.30;2.37;;;16.50;73.70;;;;;;4974237;28;20185;-78
2021/05/06 14:25:27;;;;;;;5.57;2.07;;;16.70;75.00;;;;;;4974649;28;20294;-76
2021/05/06 14:27:53;;;;;;;7.93;2.37;;;17.00;76.50;;;;;;4985777;28;20183;-78
2021/05/06 14:30:19;;;;;;;8.37;2.67;;;17.20;74.10;;;;;;4988304;28;20293;-76
2021/05/06 14:32:45;;;;;;;7.40;2.10;;;17.30;72.90;;;;;;4972118;28;20192;-76
2021/05/06 14:35:11;;;;;;;9.23;2.53;;;17.20;71.20;;;;;;5003531;28;20232;-76
2021/05/06 14:37:36;;;;;;;5.23;1.93;;;17.40;74.40;;;;;;4974404;28;20672;-76
2021/05/06 14:40:04;;;;;;;6.83;2.30;;;17.20;72.70;;;;;;4969747;28;20191;-76
2021/05/06 14:42:29;;;;;;;9.03;2.40;;;17.30;72.50;;;;;;5001824;28;20193;-77
2021/05/06 14:44:55;;;;;;;6.13;2.20;;;17.30;74.10;;;;;;4985185;28;20278;-76
2021/05/06 14:47:21;;;;;;;6.07;2.27;;;17.40;74.40;;;;;;4971799;28;20188;-76
2021/05/06 14:49:46;;;;;;;8.13;2.53;;;17.70;73.80;;;;;;4968510;28;20185;-76
2021/05/06 14:52:12;;;;;;;7.40;2.10;;;17.60;73.50;;;;;;4971978;28;20198;-77
2021/05/06 14:54:38;;;;;;;5.23;2.10;;;17.70;73.10;;;;;;4973540;28;20218;-77
2021/05/06 14:57:04;;;;;;;7.83;2.63;;;17.50;73.20;;;;;;4970932;28;20191;-76
2021/05/06 14:59:30;;;;;;;6.63;2.40;;;17.50;74.70;;;;;;4972085;28;20201;-78
2021/05/06 15:01:56;;;;;;;7.17;2.50;;;17.40;73.10;;;;;;4973116;28;20198;-78
2021/05/06 15:04:22;;;;;;;9.03;2.40;;;17.10;74.80;;;;;;4969784;28;20197;-78
2021/05/06 15:06:47;;;;;;;8.73;2.63;;;17.20;75.60;;;;;;4973458;28;20201;-78
2021/05/06 15:09:13;;;;;;;5.53;2.37;;;17.40;77.60;;;;;;4975888;28;20277;-77
2021/05/06 15:11:39;;;;;;;7.90;2.73;;;17.50;75.20;;;;;;4972379;28;20252;-77
2021/05/06 15:14:06;;;;;;;4.77;2.10;;;17.50;74.80;;;;;;5004243;28;20568;-78
2021/05/06 15:16:32;;;;;;;9.07;2.50;;;17.30;74.20;;;;;;4973000;28;20649;-78
2021/05/06 15:18:58;;;;;;;6.60;2.47;;;17.20;76.80;;;;;;4994488;28;20237;-78
2021/05/06 15:21:24;;;;;;;8.27;2.50;;;17.30;78.60;;;;;;5004054;28;20200;-78
2021/05/06 15:23:51;;;;;;;6.67;2.60;;;17.60;75.00;;;;;;4972859;28;20220;-79
2021/05/06 15:26:16;;;;;;;9.30;2.87;;;17.30;73.20;;;;;;5003215;28;20220;-79
2021/05/06 15:28:42;;;;;;;9.67;2.67;;;17.30;75.70;;;;;;5001635;28;20616;-78
2021/05/06 15:31:07;;;;;;;7.47;2.50;;;17.10;74.20;;;;;;4972823;28;20180;-78
2021/05/06 15:33:33;;;;;;;5.10;2.43;;;17.00;74.70;;;;;;4972638;28;20182;-78
2021/05/06 15:35:59;;;;;;;7.90;2.47;;;16.90;77.30;;;;;;4988063;28;20238;-78
2021/05/06 15:38:25;;;;;;;7.77;2.30;;;16.90;77.40;;;;;;5004146;28;20224;-79
2021/05/06 15:40:51;;;;;;;5.80;2.30;;;16.50;78.10;;;;;;4987611;28;20232;-79
2021/05/06 15:43:18;;;;;;;7.23;2.80;;;16.60;78.10;;;;;;4973528;28;20559;-78
2021/05/06 15:45:44;;;;;;;8.70;3.23;;;16.70;78.50;;;;;;4972890;28;20215;-78
2021/05/06 15:48:14;;;;;;;9.20;3.10;;;16.70;77.80;;;;;;5005054;28;20182;-78
2021/05/06 15:50:42;;;;;;;9.20;3.10;;;16.50;78.80;;;;;;4972417;28;20596;-78
2021/05/06 15:53:08;;;;;;;9.07;3.20;;;16.30;79.10;;;;;;5003475;28;20660;-79
2021/05/06 15:55:35;;;;;;;10.07;3.50;;;16.00;80.10;;;;;;4989148;28;20554;-78
2021/05/06 15:58:03;;;;;;;9.47;3.10;;;15.90;80.90;;;;;;4972805;28;20212;-79
2021/05/06 16:00:30;;;;;;;8.17;3.50;;;16.10;82.30;;;;;;4975860;28;20188;-78
2021/05/06 16:03:00;;;;;;;11.67;4.20;;;16.20;80.90;;;;;;4970698;28;20200;-79
2021/05/06 16:05:28;;;;;;;8.97;3.43;;;16.10;79.80;;;;;;5004481;28;20208;-79
2021/05/06 16:07:57;;;;;;;9.40;3.53;;;15.50;81.40;;;;;;4971412;28;20211;-78
2021/05/06 16:10:25;;;;;;;10.97;3.40;;;15.40;84.80;;;;;;4972717;28;20521;-78
2021/05/06 16:12:51;;;;;;;8.90;3.50;;;15.40;83.20;;;;;;4972843;28;20284;-78